Time;durP1;ratioP1;P1;durP2;ratioP2;P2;SDS_P1;SDS_P2;PMS_P1;PMS_P2;Temp;Humidity;BMP_temperature;BMP_pressure;BME280_temperature;BME280_humidity;BME280_pressure;Samples;Min_cycle;Max_cycle;Signal;HPM_P1;HPM_P2
2023/08/25 00:00:19;;;;;;;16.10;14.40;;;;;;;22.26;80.99;100086.09;4082096;28;20100;-65
2023/08/25 00:02:22;;;;;;;16.23;14.18;;;;;;;22.23;81.05;100083.56;4078855;29;20059;-65
2023/08/25 00:04:26;;;;;;;;;;;;;;;22.12;81.43;100086.66;4076464;29;20054;-66
2023/08/25 00:06:29;;;;;;;17.05;14.68;;;;;;;22.17;81.26;100091.75;4080852;29;19969;-66
2023/08/25 00:08:32;;;;;;;17.27;14.98;;;;;;;22.22;81.04;100097.72;4091094;29;20513;-65
2023/08/25 00:10:35;;;;;;;15.38;12.93;;;;;;;22.25;80.44;100092.31;4081659;29;20147;-65
2023/08/25 00:12:38;;;;;;;15.30;13.52;;;;;;;22.31;80.13;100100.03;4078316;29;20047;-65
2023/08/25 00:14:42;;;;;;;16.98;15.07;;;;;;;22.27;80.41;100094.91;4075964;29;20418;-65
2023/08/25 00:16:44;;;;;;;14.65;12.85;;;;;;;22.23;80.56;100094.16;4091132;29;20067;-65
2023/08/25 00:18:48;;;;;;;14.70;13.15;;;;;;;22.18;81.05;100104.09;4095443;28;20047;-65
2023/08/25 00:20:50;;;;;;;15.35;13.00;;;;;;;22.17;81.38;100114.75;4079453;29;20417;-65
2023/08/25 00:22:52;;;;;;;16.27;14.30;;;;;;;22.17;81.29;100105.00;4080352;29;20069;-65
2023/08/25 00:24:59;;;;;;;11.82;10.63;;;;;;;22.19;81.16;100108.44;4087066;23;20047;31
2023/08/25 00:27:02;;;;;;;13.63;12.32;;;;;;;22.19;81.33;100121.69;4100700;28;20077;-66
2023/08/25 00:29:04;;;;;;;15.90;11.70;;;;;;;22.17;81.59;100120.88;4089737;29;20043;-66
2023/08/25 00:31:09;;;;;;;18.98;14.32;;;;;;;22.18;81.71;100114.69;4105497;28;20043;-66
2023/08/25 00:33:12;;;;;;;17.10;14.23;;;;;;;22.22;81.54;100110.09;4090110;29;20101;-66
2023/08/25 00:35:14;;;;;;;16.60;12.52;;;;;;;22.17;81.77;100099.69;4078330;29;20044;-66
2023/08/25 00:37:17;;;;;;;16.38;11.93;;;;;;;22.18;81.75;100096.16;4089764;29;20043;-66
2023/08/25 00:39:20;;;;;;;22.83;11.80;;;;;;;22.22;81.64;100088.91;4088017;29;20130;-68
2023/08/25 00:41:23;;;;;;;17.00;12.85;;;;;;;22.27;81.32;100086.97;4085291;28;20063;-66
2023/08/25 00:43:27;;;;;;;18.60;13.73;;;;;;;22.24;81.20;100074.69;4095398;29;20311;-67
2023/08/25 00:45:31;;;;;;;14.50;11.27;;;;;;;22.24;81.15;100085.31;4089142;29;20074;-67
2023/08/25 00:47:36;;;;;;;16.27;12.85;;;;;;;22.27;80.68;100094.91;4060526;29;20575;-66
2023/08/25 00:49:39;;;;;;;15.70;11.68;;;;;;;22.25;81.07;100092.31;4088310;29;20045;-67
2023/08/25 00:51:43;;;;;;;17.07;13.53;;;;;;;22.24;81.38;100090.59;4085262;29;20040;-67
2023/08/25 00:53:46;;;;;;;17.08;15.48;;;;;;;22.31;80.94;100084.13;4086932;29;20340;-67
2023/08/25 00:55:49;;;;;;;16.63;13.70;;;;;;;22.30;80.88;100085.03;4079740;29;20048;-67
2023/08/25 00:57:53;;;;;;;16.48;10.85;;;;;;;22.21;81.31;100101.31;4093856;29;20130;-66
2023/08/25 00:59:56;;;;;;;15.57;14.07;;;;;;;22.23;81.80;100098.59;4091532;29;20493;-66
2023/08/25 01:02:00;;;;;;;17.17;13.20;;;;;;;22.26;81.56;100104.63;4076695;29;20122;-66
2023/08/25 01:04:05;;;;;;;;;;;;;;;22.31;81.12;100101.78;4086644;29;20135;-66
2023/08/25 01:06:09;;;;;;;20.23;14.15;;;;;;;22.25;81.33;100092.31;4088343;29;19933;-66
2023/08/25 01:08:12;;;;;;;14.57;12.35;;;;;;;22.22;81.66;100080.97;4084047;29;20100;-66
2023/08/25 01:10:16;;;;;;;11.88;10.10;;;;;;;22.23;81.92;100090.66;4087117;29;20614;-66
2023/08/25 01:12:27;;;;;;;12.30;11.07;;;;;;;22.22;82.23;100089.78;4094280;29;20040;-66
2023/08/25 01:14:42;;;;;;;14.93;11.18;;;;;;;22.22;82.53;100097.72;4081427;29;20111;-66
2023/08/25 01:16:50;;;;;;;;;;;;;;;22.19;82.60;100095.19;4073100;29;20048;-66
2023/08/25 01:18:54;;;;;;;12.90;11.27;;;;;;;22.30;82.00;100100.94;4107998;28;19922;-67
2023/08/25 01:21:01;;;;;;;16.52;13.18;;;;;;;22.28;81.83;100108.09;4093168;29;20126;-66
2023/08/25 01:23:15;;;;;;;14.82;12.07;;;;;;;22.25;82.14;100102.91;4076314;29;20078;-66
2023/08/25 01:25:24;;;;;;;16.52;12.38;;;;;;;22.23;82.31;100104.75;4088009;29;20040;-66
2023/08/25 01:27:27;;;;;;;11.82;10.50;;;;;;;22.22;82.52;100088.91;4086136;29;21665;-67
2023/08/25 01:29:30;;;;;;;14.37;10.83;;;;;;;22.23;82.52;100099.44;4092433;29;20094;-67
2023/08/25 01:31:33;;;;;;;15.95;12.98;;;;;;;22.32;81.68;100087.66;4091420;29;20046;-67
2023/08/25 01:33:39;;;;;;;14.18;12.77;;;;;;;22.29;81.68;100091.25;4094870;29;20043;-67
2023/08/25 01:35:50;;;;;;;17.30;11.23;;;;;;;22.24;82.05;100087.94;4091486;28;20035;-66
2023/08/25 01:38:02;;;;;;;13.82;12.43;;;;;;;22.25;81.90;100073.78;4084225;29;20050;-67
2023/08/25 01:40:16;;;;;;;16.48;13.98;;;;;;;22.30;81.46;100071.81;4093119;29;20457;-67
2023/08/25 01:42:24;;;;;;;12.73;10.07;;;;;;;22.24;81.52;100080.00;4083959;29;20039;-66
2023/08/25 01:44:29;;;;;;;13.40;11.13;;;;;;;22.19;82.04;100073.16;4085849;29;20071;-67
2023/08/25 01:46:35;;;;;;;14.60;11.43;;;;;;;22.18;82.30;100079.38;4081883;29;20048;-66
2023/08/25 01:48:43;;;;;;;14.32;12.02;;;;;;;22.18;82.48;100074.97;4074244;29;20053;-66
2023/08/25 01:50:47;;;;;;;16.15;11.30;;;;;;;22.19;82.27;100081.97;4086026;29;20039;-66
2023/08/25 01:52:50;;;;;;;17.55;10.95;;;;;;;22.18;82.46;100089.97;4082462;29;20035;-66
2023/08/25 01:54:53;;;;;;;11.65;10.02;;;;;;;22.17;82.58;100083.81;4075704;29;20036;-66
2023/08/25 01:56:56;;;;;;;14.68;10.30;;;;;;;22.20;82.37;100082.84;4065672;29;20044;-66
2023/08/25 01:59:00;;;;;;;12.40;11.02;;;;;;;22.21;82.42;100085.44;4094028;29;20477;-67
2023/08/25 02:01:04;;;;;;;13.95;11.93;;;;;;;22.22;82.10;100092.41;4077944;29;20445;-67
2023/08/25 02:03:07;;;;;;;14.35;11.10;;;;;;;22.20;82.24;100094.28;4082176;29;20040;-67
2023/08/25 02:05:09;;;;;;;12.13;9.32;;;;;;;22.19;82.50;100092.53;4059991;29;20562;-67
2023/08/25 02:07:13;;;;;;;15.85;11.75;;;;;;;22.17;82.50;100094.41;4092899;29;20102;-67
2023/08/25 02:09:16;;;;;;;15.82;11.38;;;;;;;22.17;82.48;100099.69;4072754;29;20083;-67
2023/08/25 02:11:19;;;;;;;11.82;10.60;;;;;;;22.23;82.12;100080.06;4096775;29;20047;-67
2023/08/25 02:13:22;;;;;;;13.35;10.10;;;;;;;22.20;82.10;100075.75;4077698;29;20514;-66
2023/08/25 02:15:26;;;;;;;13.18;11.68;;;;;;;22.22;81.83;100075.69;4074649;29;20046;-66
2023/08/25 02:17:29;;;;;;;13.05;8.65;;;;;;;22.19;81.83;100076.66;4078031;29;20458;-66
2023/08/25 02:19:33;;;;;;;13.20;10.85;;;;;;;22.20;82.05;100072.25;4092325;29;20040;-67
2023/08/25 02:21:36;;;;;;;11.70;9.75;;;;;;;22.17;82.28;100064.44;4092858;29;20083;-67
2023/08/25 02:23:40;;;;;;;13.52;10.65;;;;;;;22.17;82.24;100070.56;4074154;29;20056;-67
2023/08/25 02:25:42;;;;;;;14.82;10.07;;;;;;;22.12;82.47;100061.94;4092646;29;20039;-66
2023/08/25 02:27:45;;;;;;;11.32;8.85;;;;;;;22.14;82.44;100066.25;4092249;29;20491;-67
2023/08/25 02:29:49;;;;;;;14.40;8.90;;;;;;;22.14;82.50;100074.19;4092003;29;20060;-67
2023/08/25 02:31:55;;;;;;;19.35;9.25;;;;;;;22.14;82.41;100079.50;4093313;29;20840;-66
2023/08/25 02:33:58;;;;;;;12.52;10.45;;;;;;;22.17;82.31;100077.66;4094016;29;20053;-67
2023/08/25 02:36:01;;;;;;;11.90;9.32;;;;;;;22.17;82.19;100067.94;4076509;29;20510;-66
2023/08/25 02:38:05;;;;;;;13.20;9.43;;;;;;;22.18;81.89;100064.38;4086905;29;20592;-66
2023/08/25 02:40:09;;;;;;;11.60;9.70;;;;;;;22.16;81.88;100066.19;4092156;29;20467;-67
2023/08/25 02:42:13;;;;;;;10.80;8.88;;;;;;;22.13;81.64;100068.97;4088720;29;20522;-67
2023/08/25 02:44:16;;;;;;;9.95;8.52;;;;;;;22.15;81.56;100061.81;4111518;28;20461;-67
2023/08/25 02:46:19;;;;;;;10.93;8.95;;;;;;;22.11;81.76;100062.88;4078031;29;20040;-66
2023/08/25 02:48:23;;;;;;;11.10;8.85;;;;;;;22.08;81.76;100065.66;4090624;29;20127;-67
2023/08/25 02:50:25;;;;;;;10.93;8.85;;;;;;;22.05;81.93;100058.69;4075143;29;20039;-67
2023/08/25 02:52:28;;;;;;;12.20;8.85;;;;;;;22.06;82.07;100052.47;4077936;29;20039;-67
2023/08/25 02:54:31;;;;;;;17.13;8.85;;;;;;;22.07;81.56;100034.81;4075422;29;20049;-67
2023/08/25 02:56:34;;;;;;;12.57;10.15;;;;;;;22.12;81.14;100033.69;4084254;29;20075;-67
2023/08/25 02:58:37;;;;;;;9.80;8.18;;;;;;;22.09;81.16;100033.84;4071805;29;20064;-66
2023/08/25 03:00:40;;;;;;;13.43;8.38;;;;;;;22.02;81.20;100037.66;4087330;29;20421;-67
2023/08/25 03:02:43;;;;;;;11.30;8.23;;;;;;;22.02;81.40;100031.47;4090837;29;20063;-67
2023/08/25 03:04:48;;;;;;;14.25;8.55;;;;;;;22.03;81.34;100030.56;4090878;29;20501;-67
2023/08/25 03:06:54;;;;;;;10.95;7.97;;;;;;;21.99;81.51;100021.88;4091835;29;20037;-67
2023/08/25 03:08:57;;;;;;;11.45;8.65;;;;;;;21.97;81.51;100024.56;4088311;29;20039;-67
2023/08/25 03:11:02;;;;;;;10.43;8.00;;;;;;;21.98;81.42;100025.44;4076670;29;20090;-67
2023/08/25 03:13:06;;;;;;;13.70;8.73;;;;;;;21.96;81.31;100014.94;4083928;29;20039;-67
2023/08/25 03:15:10;;;;;;;11.05;7.97;;;;;;;21.95;81.33;100012.34;4090529;28;20054;-67
2023/08/25 03:17:13;;;;;;;9.00;7.55;;;;;;;21.95;81.65;100007.91;4074774;29;20055;-66
2023/08/25 03:19:17;;;;;;;9.60;6.93;;;;;;;21.94;81.56;100008.81;4090398;29;20047;-66
2023/08/25 03:21:21;;;;;;;12.73;8.02;;;;;;;21.95;81.63;100007.91;4086251;29;20589;-66
2023/08/25 03:23:24;;;;;;;10.50;7.72;;;;;;;21.96;81.44;100003.47;4091605;29;20568;-66
2023/08/25 03:25:27;;;;;;;10.75;8.10;;;;;;;21.92;81.62;100010.69;4092195;28;20070;-66
2023/08/25 03:27:32;;;;;;;;;;;;;;;21.81;81.96;100007.59;4073021;29;20590;-66
2023/08/25 03:29:36;;;;;;;16.35;8.80;;;;;;;21.91;81.51;100013.38;4090303;29;20013;-66
2023/08/25 03:31:39;;;;;;;14.27;9.20;;;;;;;21.90;81.09;99999.31;4088126;29;20039;-66
2023/08/25 03:33:42;;;;;;;10.07;7.72;;;;;;;21.88;81.29;99993.19;4089777;29;20523;-66
2023/08/25 03:35:45;;;;;;;8.95;8.05;;;;;;;21.88;81.02;99981.75;4094083;28;20043;-66
2023/08/25 03:37:50;;;;;;;11.77;7.82;;;;;;;21.88;81.00;99987.91;4089690;29;20095;-66
2023/08/25 03:39:52;;;;;;;10.45;8.90;;;;;;;21.87;80.93;99986.16;4072489;29;20071;-66
2023/08/25 03:41:56;;;;;;;9.18;8.18;;;;;;;21.86;80.86;99992.41;4077929;29;20056;-66
2023/08/25 03:43:59;;;;;;;10.70;7.82;;;;;;;21.78;81.34;99983.91;4073876;29;20094;-66
2023/08/25 03:46:01;;;;;;;12.10;8.55;;;;;;;21.81;81.44;99973.19;4091776;28;20035;-66
2023/08/25 03:48:04;;;;;;;9.60;6.93;;;;;;;21.76;81.55;99985.75;4073458;29;20597;-66
2023/08/25 03:50:07;;;;;;;8.80;7.40;;;;;;;21.76;81.48;99988.41;4090736;29;20058;-66
2023/08/25 03:52:11;;;;;;;9.98;7.45;;;;;;;21.83;80.92;99981.94;4091150;29;20102;-66
2023/08/25 03:54:15;;;;;;;10.75;7.88;;;;;;;21.78;81.05;99960.09;4089281;29;20425;-66
2023/08/25 03:56:18;;;;;;;10.20;8.77;;;;;;;21.73;81.19;99946.19;4068931;29;20391;-66
2023/08/25 03:58:22;;;;;;;;;;;;;;;21.61;81.59;99952.81;4093406;29;20048;-67
2023/08/25 04:00:26;;;;;;;9.30;7.95;;;;;;;21.57;81.93;99938.84;4088944;29;20352;-66
2023/08/25 04:02:29;;;;;;;8.23;7.43;;;;;;;21.59;81.92;99939.66;4072646;29;20054;-66
2023/08/25 04:04:32;;;;;;;6.65;5.55;;;;;;;21.55;82.07;99931.91;4072588;29;20375;-59
2023/08/25 04:06:35;;;;;;;8.73;5.70;;;;;;;21.73;82.05;99935.63;4083816;29;20193;-59
2023/08/25 04:08:38;;;;;;;7.10;5.70;;;;;;;21.92;81.40;99939.22;4070248;29;20046;-60
2023/08/25 04:10:42;;;;;;;9.18;6.20;;;;;;;22.04;80.60;99945.78;4066270;29;20060;-60
2023/08/25 04:12:46;;;;;;;10.10;6.88;;;;;;;22.14;80.15;99962.16;4066936;29;20435;-60
2023/08/25 04:14:49;;;;;;;8.73;6.28;;;;;;;22.17;79.68;99977.91;4070168;29;20193;-60
2023/08/25 04:16:53;;;;;;;11.50;8.32;;;;;;;22.19;79.12;99977.84;4090329;29;20107;-61
2023/08/25 04:18:56;;;;;;;10.00;6.78;;;;;;;22.09;79.44;99977.34;4074019;29;20490;-59
2023/08/25 04:20:59;;;;;;;8.77;7.00;;;;;;;22.07;79.39;99982.72;4083208;29;20048;-60
2023/08/25 04:23:04;;;;;;;8.07;5.35;;;;;;;21.93;79.78;99988.59;4068638;29;20067;-60
2023/08/25 04:25:07;;;;;;;8.55;7.55;;;;;;;21.97;80.24;99997.25;4071441;29;21436;-60
2023/08/25 04:27:11;;;;;;;7.10;5.55;;;;;;;21.92;80.24;100021.25;4071459;29;20138;-61
2023/08/25 04:29:14;;;;;;;;;;;;;;;21.75;80.76;100076.63;4084839;29;20047;-60
2023/08/25 04:31:18;;;;;;;11.75;7.57;;;;;;;21.65;81.64;100120.22;4087206;29;19922;-66
2023/08/25 04:33:27;;;;;;;15.13;8.95;;;;;;;21.57;82.40;100136.41;4065468;29;20096;-66
2023/08/25 04:35:32;;;;;;;9.07;6.40;;;;;;;21.59;82.63;100093.06;4081813;29;20465;-65
2023/08/25 04:37:35;;;;;;;14.05;8.35;;;;;;;21.62;82.83;100070.94;4065458;29;20036;-66
2023/08/25 04:39:40;;;;;;;11.48;7.32;;;;;;;21.67;82.78;100073.41;4083388;29;20039;-65
2023/08/25 04:41:44;;;;;;;10.55;8.23;;;;;;;21.73;82.57;100074.03;4085280;29;20039;-67
2023/08/25 04:43:49;;;;;;;14.85;10.10;;;;;;;21.80;82.49;100074.69;4085395;29;20032;-67
2023/08/25 04:45:51;;;;;;;14.60;8.98;;;;;;;21.75;82.45;100050.16;4074722;29;20087;-67
2023/08/25 04:47:54;;;;;;;16.33;9.88;;;;;;;21.79;82.68;100036.75;4086950;29;20618;-67
2023/08/25 04:50:02;;;;;;;;;;;;;;;21.87;82.00;99994.09;4086270;29;20035;-67
2023/08/25 04:52:05;;;;;;;22.83;11.73;;;;;;;21.74;82.07;99937.31;4089217;29;19984;-68
2023/08/25 04:54:10;;;;;;;27.77;13.48;;;;;;;21.57;83.54;99872.72;4088567;29;20099;-68
2023/08/25 04:56:17;;;;;;;18.95;11.77;;;;;;;21.75;81.92;99818.19;4086216;28;20047;-69
2023/08/25 04:58:20;;;;;;;14.52;9.48;;;;;;;21.39;83.40;99839.06;4087201;29;20087;-69
2023/08/25 05:00:29;;;;;;;18.50;10.20;;;;;;;21.37;83.88;99840.91;4084817;29;20090;-69
2023/08/25 05:02:32;;;;;;;12.90;8.57;;;;;;;21.21;84.27;99840.66;4086453;29;20039;-69
2023/08/25 05:04:35;;;;;;;15.68;8.70;;;;;;;21.08;85.37;99924.88;4075688;29;20135;-69
2023/08/25 05:06:38;;;;;;;14.85;8.73;;;;;;;21.10;85.05;99926.53;4089966;29;20043;-69
2023/08/25 05:08:41;;;;;;;18.33;9.13;;;;;;;21.10;85.17;99928.34;4074278;29;20099;-68
2023/08/25 05:10:44;;;;;;;17.38;10.13;;;;;;;21.24;84.11;99915.41;4084668;29;20103;-69
2023/08/25 05:12:48;;;;;;;11.25;9.07;;;;;;;21.10;85.04;99921.25;4072561;29;20594;-69
2023/08/25 05:14:51;;;;;;;14.02;9.23;;;;;;;20.98;86.41;99953.41;4073626;29;20486;-68
2023/08/25 05:16:55;;;;;;;12.55;8.80;;;;;;;20.89;87.52;99983.69;4070031;29;20036;-69
2023/08/25 05:19:03;;;;;;;12.38;9.15;;;;;;;21.00;87.56;99982.44;4076164;29;20087;-68
2023/08/25 05:21:08;;;;;;;14.07;7.97;;;;;;;21.18;85.90;99999.41;4071298;29;20158;-69
2023/08/25 05:23:11;;;;;;;13.20;8.00;;;;;;;21.07;86.60;100047.34;4089743;28;20489;-69
2023/08/25 05:25:15;;;;;;;15.90;7.60;;;;;;;21.00;87.60;100104.88;4071728;29;20042;-69
2023/08/25 05:27:21;;;;;;;11.63;8.35;;;;;;;20.95;88.20;100132.38;4091060;29;20043;-69
2023/08/25 05:29:26;;;;;;;13.05;8.80;;;;;;;20.97;88.33;100136.69;4094317;29;20397;-69
2023/08/25 05:31:30;;;;;;;16.02;9.95;;;;;;;21.03;88.46;100140.91;4091600;29;20126;-69
2023/08/25 05:34:04;;;;;;;16.45;10.02;;;;;;;21.14;88.26;100159.03;4059560;29;20048;-68
2023/08/25 05:36:09;;;;;;;13.77;8.20;;;;;;;21.19;88.20;100167.69;4077590;29;20044;-69
2023/08/25 05:38:13;;;;;;;16.20;9.43;;;;;;;21.25;87.95;100170.97;4072064;29;20035;-69
2023/08/25 05:40:16;;;;;;;13.90;8.77;;;;;;;21.26;87.50;100167.41;4099332;28;20047;-69
2023/08/25 05:42:20;;;;;;;15.98;8.63;;;;;;;21.28;87.05;100167.34;4094882;29;20091;-69
2023/08/25 05:44:23;;;;;;;17.02;9.52;;;;;;;21.31;86.47;100169.88;4091198;29;20577;-69
2023/08/25 05:46:29;;;;;;;13.38;8.48;;;;;;;21.30;86.53;100168.16;4074767;29;20552;-68
2023/08/25 05:48:32;;;;;;;17.25;10.60;;;;;;;21.29;86.19;100163.81;4089155;29;20118;-69
2023/08/25 05:50:36;;;;;;;18.95;9.93;;;;;;;21.32;85.63;100166.34;4106579;28;20051;-69
2023/08/25 05:52:39;;;;;;;20.42;9.57;;;;;;;21.32;84.98;100160.16;4086483;29;20046;-67
2023/08/25 05:54:42;;;;;;;13.40;7.20;;;;;;;21.21;84.64;100166.69;4076710;29;20126;-67
2023/08/25 05:56:45;;;;;;;12.15;6.88;;;;;;;21.15;84.10;100153.69;4090256;28;20039;-67
2023/08/25 05:58:48;;;;;;;11.35;6.80;;;;;;;21.10;84.08;100142.44;4092233;29;20245;-67
2023/08/25 06:00:51;;;;;;;14.10;6.95;;;;;;;21.05;83.59;100128.50;4093097;29;20378;-67
2023/08/25 06:02:54;;;;;;;10.93;6.28;;;;;;;21.06;83.85;100114.38;4090242;29;20130;-67
2023/08/25 06:04:57;;;;;;;14.57;6.53;;;;;;;21.06;83.53;100102.00;4084847;29;20547;-67
2023/08/25 06:07:01;;;;;;;8.48;5.53;;;;;;;21.09;82.92;100090.47;4092559;29;20500;-67
2023/08/25 06:09:05;;;;;;;11.10;6.15;;;;;;;21.05;82.29;100073.00;4090680;29;20050;-67
2023/08/25 06:11:08;;;;;;;13.80;5.80;;;;;;;21.13;82.34;100054.19;4072906;29;20056;-67
2023/08/25 06:13:11;;;;;;;9.23;5.57;;;;;;;21.07;82.07;100060.56;4092690;29;20043;-67
2023/08/25 06:15:14;;;;;;;8.63;5.25;;;;;;;21.04;82.50;100058.03;4086130;29;20067;-67
2023/08/25 06:17:16;;;;;;;12.15;5.53;;;;;;;21.19;81.67;100030.22;4090075;29;20039;-67
2023/08/25 06:19:19;;;;;;;11.13;5.18;;;;;;;21.17;81.19;100013.53;4061160;29;20054;-67
2023/08/25 06:21:22;;;;;;;10.43;5.25;;;;;;;21.15;80.53;99997.72;4089833;29;20099;-67
2023/08/25 06:23:27;;;;;;;8.45;5.03;;;;;;;20.95;81.54;100008.16;4070383;29;20042;-67
2023/08/25 06:25:29;;;;;;;;;;;;;;;20.70;82.75;100030.16;4089523;28;20035;-67
2023/08/25 06:27:32;;;;;;;11.27;5.65;;;;;;;20.63;84.12;100076.16;4091612;29;19938;-68
2023/08/25 06:29:35;;;;;;;8.13;4.57;;;;;;;20.62;84.46;100083.22;4087421;29;20463;-67
2023/08/25 06:31:38;;;;;;;9.75;5.80;;;;;;;20.72;84.54;100057.38;4075678;29;20127;-68
2023/08/25 06:33:41;;;;;;;13.35;5.93;;;;;;;21.03;82.46;100035.19;4091883;29;20493;-67
2023/08/25 06:35:44;;;;;;;10.85;5.43;;;;;;;20.78;83.13;100073.03;4089801;29;20057;-67
2023/08/25 06:37:48;;;;;;;11.43;5.88;;;;;;;20.78;83.62;100072.16;4089771;29;20064;-68
2023/08/25 06:39:52;;;;;;;13.50;5.97;;;;;;;20.70;83.83;100067.16;4092181;29;20039;-68
2023/08/25 06:41:55;;;;;;;10.65;5.63;;;;;;;20.83;83.73;100063.16;4072743;29;20390;-68
2023/08/25 06:44:00;;;;;;;15.43;6.30;;;;;;;20.74;83.97;100058.22;4086105;29;20035;-68
2023/08/25 06:46:03;;;;;;;15.63;5.88;;;;;;;20.71;84.70;100037.19;4092682;28;20413;-67
2023/08/25 06:48:06;;;;;;;8.73;5.68;;;;;;;20.81;83.63;100043.88;4085973;29;20051;-67
2023/08/25 06:50:10;;;;;;;7.93;5.20;;;;;;;20.67;84.35;100032.91;4089714;29;20043;-67
2023/08/25 06:52:13;;;;;;;9.60;6.25;;;;;;;20.66;84.73;100023.22;4091060;29;20130;-67
2023/08/25 06:54:16;;;;;;;13.48;6.10;;;;;;;20.69;84.74;100033.72;4090000;29;20050;-67
2023/08/25 06:56:20;;;;;;;11.88;6.30;;;;;;;20.79;84.68;100019.28;4090427;29;20046;-67
2023/08/25 06:58:23;;;;;;;15.35;7.22;;;;;;;20.84;84.58;100006.78;4092416;29;20462;-68
2023/08/25 07:00:26;;;;;;;11.60;6.13;;;;;;;20.86;84.24;100018.13;4088231;29;20127;-67
2023/08/25 07:02:29;;;;;;;17.10;6.78;;;;;;;20.81;84.62;100050.91;4086282;29;20043;-67
2023/08/25 07:04:32;;;;;;;9.45;5.75;;;;;;;20.74;85.40;100071.41;4094094;29;20375;-67
2023/08/25 07:06:36;;;;;;;8.32;5.38;;;;;;;20.81;85.16;100062.38;4072446;29;20657;-67
2023/08/25 07:08:39;;;;;;;8.27;5.70;;;;;;;20.69;86.04;100099.75;4088187;29;20498;-67
2023/08/25 07:10:46;;;;;;;11.95;5.70;;;;;;;20.60;86.83;100111.47;4093251;29;20398;-68
2023/08/25 07:12:50;;;;;;;10.10;5.22;;;;;;;20.72;86.45;100055.63;4090433;29;20073;-67
2023/08/25 07:14:53;;;;;;;9.65;5.80;;;;;;;20.89;85.22;100040.97;4088525;29;20437;-67
2023/08/25 07:16:56;;;;;;;8.48;5.43;;;;;;;21.08;83.69;100023.53;4084185;29;20404;-68
2023/08/25 07:18:59;;;;;;;8.57;5.60;;;;;;;20.95;84.13;100031.94;4092556;29;20042;-67
2023/08/25 07:21:06;;;;;;;8.65;5.75;;;;;;;20.89;85.32;100036.53;4089646;29;20094;-67
2023/08/25 07:23:09;;;;;;;8.35;5.10;;;;;;;20.90;85.46;100030.31;4089635;29;20490;-68
2023/08/25 07:25:13;;;;;;;10.38;5.13;;;;;;;21.02;84.59;100039.59;4090584;29;20433;-67
2023/08/25 07:27:15;;;;;;;9.95;5.97;;;;;;;21.02;85.18;100033.47;4088303;29;20063;-68
2023/08/25 07:29:20;;;;;;;8.52;4.72;;;;;;;21.07;85.01;100027.09;4091140;29;20134;-68
2023/08/25 07:31:22;;;;;;;9.80;5.30;;;;;;;21.09;85.27;100016.47;4090681;29;21808;-68
2023/08/25 07:33:25;;;;;;;11.02;5.88;;;;;;;21.11;85.24;100017.25;4089041;29;20134;-67
2023/08/25 07:35:28;;;;;;;7.55;5.07;;;;;;;21.16;85.45;100014.44;4089867;28;20035;-67
2023/08/25 07:37:31;;;;;;;10.73;5.93;;;;;;;21.30;84.56;100011.31;4087777;29;20474;-67
2023/08/25 07:39:33;;;;;;;12.90;5.60;;;;;;;21.25;84.48;100017.63;4089110;29;20036;-67
2023/08/25 07:41:40;;;;;;;8.75;4.28;;;;;;;21.19;85.15;100057.50;4087485;29;20047;-68
2023/08/25 07:43:43;;;;;;;9.23;5.35;;;;;;;21.21;85.34;100079.44;4091900;29;20374;-67
2023/08/25 07:45:50;;;;;;;13.80;6.25;;;;;;;21.39;85.54;100084.97;4090543;28;20498;-67
2023/08/25 07:47:55;;;;;;;8.38;4.90;;;;;;;21.44;85.31;100109.50;4087813;29;20074;-68
2023/08/25 07:49:58;;;;;;;15.60;4.95;;;;;;;21.48;85.24;100113.75;4074187;29;20050;-68
2023/08/25 07:52:00;;;;;;;12.70;6.30;;;;;;;21.52;85.14;100106.59;4091567;29;20126;-68
2023/08/25 07:54:04;;;;;;;14.30;8.27;;;;;;;21.53;85.08;100111.81;4070654;29;20391;-68
2023/08/25 07:56:06;;;;;;;9.77;5.30;;;;;;;21.56;84.45;100094.97;4090784;28;20067;-68
2023/08/25 07:58:10;;;;;;;10.25;5.57;;;;;;;21.60;84.25;100096.59;4089526;29;20505;-68
2023/08/25 08:00:15;;;;;;;7.88;6.28;;;;;;;21.67;83.91;100094.56;4085083;29;20086;-67
2023/08/25 08:02:21;;;;;;;15.10;5.90;;;;;;;21.68;84.06;100096.31;4090401;29;20042;-70
2023/08/25 08:04:24;;;;;;;9.68;6.55;;;;;;;21.63;84.53;100112.34;4091204;29;21066;-67
2023/08/25 08:06:27;;;;;;;8.75;5.35;;;;;;;21.58;84.39;100115.19;4070911;29;20453;-67
2023/08/25 08:08:30;;;;;;;9.30;5.50;;;;;;;21.56;83.86;100117.00;4088567;29;20379;-67
2023/08/25 08:10:33;;;;;;;10.40;5.60;;;;;;;21.58;83.70;100112.53;4087161;29;20102;-67
2023/08/25 08:12:36;;;;;;;7.18;4.95;;;;;;;21.58;84.20;100119.59;4090349;29;20130;-67
2023/08/25 08:14:39;;;;;;;8.93;5.28;;;;;;;21.60;83.69;100105.38;4087618;29;20067;-67
2023/08/25 08:16:49;;;;;;;9.75;5.80;;;;;;;21.64;84.39;100107.91;4073372;29;20047;-66
2023/08/25 08:18:54;;;;;;;7.43;4.90;;;;;;;21.59;84.92;100101.00;4088329;29;20070;-67
2023/08/25 08:20:57;;;;;;;8.80;5.43;;;;;;;21.67;84.47;100100.75;4085564;29;20391;-67
2023/08/25 08:23:00;;;;;;;12.52;6.25;;;;;;;21.58;84.46;100099.31;4090565;29;20047;-66
2023/08/25 08:25:03;;;;;;;7.63;5.60;;;;;;;21.53;84.94;100109.19;4085258;29;20050;-66
2023/08/25 08:27:07;;;;;;;9.48;6.88;;;;;;;21.52;85.06;100120.66;4087361;29;20047;-67
2023/08/25 08:29:10;;;;;;;12.40;5.43;;;;;;;21.49;84.84;100120.75;4073767;29;20075;-67
2023/08/25 08:31:18;;;;;;;8.77;5.43;;;;;;;21.52;84.92;100125.97;4088620;29;20140;-67
2023/08/25 08:33:21;;;;;;;9.25;6.35;;;;;;;21.57;85.13;100128.47;4087971;29;20504;-67
2023/08/25 08:35:25;;;;;;;10.70;5.88;;;;;;;21.53;85.18;100127.69;4088304;28;20036;-67
2023/08/25 08:37:28;;;;;;;;;;;;;;;21.56;85.66;100130.22;4089569;29;20049;-67
2023/08/25 08:39:31;;;;;;;10.75;6.50;;;;;;;21.56;85.90;100132.88;4086778;29;19977;-67
2023/08/25 08:41:35;;;;;;;9.55;6.40;;;;;;;21.72;85.14;100124.38;4084335;29;20078;-67
2023/08/25 08:43:42;;;;;;;10.35;6.38;;;;;;;21.81;85.38;100134.59;4084660;29;20138;-67
2023/08/25 08:45:48;;;;;;;9.48;4.97;;;;;;;21.92;85.17;100126.28;4083194;29;20123;-67
2023/08/25 08:47:52;;;;;;;8.80;5.53;;;;;;;22.14;84.83;100131.59;4087888;29;20140;-66
2023/08/25 08:49:58;;;;;;;8.73;5.03;;;;;;;22.37;82.77;100122.78;4105353;28;20816;-67
2023/08/25 08:52:06;;;;;;;7.65;4.50;;;;;;;22.35;82.64;100110.50;4088987;29;20051;-67
2023/08/25 08:54:09;;;;;;;8.30;4.40;;;;;;;22.30;82.42;100116.81;4085949;29;20054;-67
2023/08/25 08:56:13;;;;;;;7.53;4.47;;;;;;;22.39;82.82;100117.41;4085249;28;20489;-67
2023/08/25 08:58:16;;;;;;;8.07;4.75;;;;;;;22.31;82.96;100107.97;4091107;29;20044;-67
2023/08/25 09:00:20;;;;;;;7.35;3.85;;;;;;;22.36;82.90;100106.94;4087870;29;20043;-67
2023/08/25 09:02:24;;;;;;;6.32;3.65;;;;;;;22.51;82.96;100095.72;4094525;29;20414;-67
2023/08/25 09:04:28;;;;;;;6.65;4.20;;;;;;;22.50;82.98;100091.34;4091083;29;20066;-67
2023/08/25 09:06:35;;;;;;;7.88;3.85;;;;;;;22.61;82.49;100091.75;4076926;29;20047;-67
2023/08/25 09:08:40;;;;;;;7.43;3.92;;;;;;;22.62;82.41;100095.28;4090381;29;20108;-67
2023/08/25 09:10:43;;;;;;;4.95;3.25;;;;;;;22.78;82.17;100108.72;4092637;29;20051;-67
2023/08/25 09:12:46;;;;;;;6.53;3.75;;;;;;;22.92;82.42;100108.16;4093600;29;20127;-67
2023/08/25 09:14:49;;;;;;;14.27;4.45;;;;;;;23.04;81.18;100106.75;4092372;29;20568;-67
2023/08/25 09:16:55;;;;;;;11.23;4.10;;;;;;;23.13;81.77;100106.38;4089779;29;20071;-67
2023/08/25 09:19:00;;;;;;;5.10;3.13;;;;;;;23.13;80.69;100103.72;4089931;29;20044;-67
2023/08/25 09:21:14;;;;;;;8.70;3.25;;;;;;;23.27;79.49;100080.13;4092528;29;20087;-67
2023/08/25 09:23:17;;;;;;;6.32;3.90;;;;;;;23.32;79.85;100066.69;4077819;29;20515;-67
2023/08/25 09:25:21;;;;;;;6.43;3.13;;;;;;;23.40;79.21;100051.25;4091201;28;20042;-67
2023/08/25 09:27:25;;;;;;;;;;;;;;;23.50;79.57;100046.41;4090333;29;20144;-67
2023/08/25 09:29:41;;;;;;;4.32;3.15;;;;;;;23.65;79.85;100045.66;4092370;29;19922;-67
2023/08/25 09:31:44;;;;;;;4.55;2.55;;;;;;;23.70;78.59;100048.13;4090021;29;20126;-67
2023/08/25 09:33:47;;;;;;;5.28;3.03;;;;;;;23.69;79.07;100041.94;4056419;29;20051;-67